sensor_id;sensor_type;location;lat;lon;timestamp;P1;durP1;ratioP1;P2;durP2;ratioP2
41739;SDS011;27422;52.444;13.300;2022-09-24T00:00:50;6.35;;;3.53;;
41739;SDS011;27422;52.444;13.300;2022-09-24T00:03:20;6.85;;;3.90;;
41739;SDS011;27422;52.444;13.300;2022-09-24T00:05:47;6.47;;;3.72;;
41739;SDS011;27422;52.444;13.300;2022-09-24T00:08:14;5.57;;;3.75;;
41739;SDS011;27422;52.444;13.300;2022-09-24T00:10:41;5.32;;;3.42;;
41739;SDS011;27422;52.444;13.300;2022-09-24T00:18:04;5.75;;;3.65;;
41739;SDS011;27422;52.444;13.300;2022-09-24T00:20:32;5.97;;;3.97;;
41739;SDS011;27422;52.444;13.300;2022-09-24T00:22:58;6.88;;;4.63;;
41739;SDS011;27422;52.444;13.300;2022-09-24T00:25:24;5.47;;;3.92;;
41739;SDS011;27422;52.444;13.300;2022-09-24T00:28:08;6.20;;;4.10;;
41739;SDS011;27422;52.444;13.300;2022-09-24T00:30:33;6.97;;;4.05;;
41739;SDS011;27422;52.444;13.300;2022-09-24T00:32:58;5.25;;;3.83;;
41739;SDS011;27422;52.444;13.300;2022-09-24T00:35:24;5.60;;;3.78;;
41739;SDS011;27422;52.444;13.300;2022-09-24T00:37:50;5.85;;;3.72;;
41739;SDS011;27422;52.444;13.300;2022-09-24T00:40:15;7.18;;;4.20;;
41739;SDS011;27422;52.444;13.300;2022-09-24T00:42:41;7.18;;;4.03;;
41739;SDS011;27422;52.444;13.300;2022-09-24T00:45:08;5.75;;;3.60;;
41739;SDS011;27422;52.444;13.300;2022-09-24T00:47:35;5.68;;;4.13;;
41739;SDS011;27422;52.444;13.300;2022-09-24T00:52:34;7.18;;;4.03;;
41739;SDS011;27422;52.444;13.300;2022-09-24T00:55:02;7.38;;;4.10;;
41739;SDS011;27422;52.444;13.300;2022-09-24T00:57:28;8.43;;;4.50;;
41739;SDS011;27422;52.444;13.300;2022-09-24T00:59:53;6.82;;;4.10;;
41739;SDS011;27422;52.444;13.300;2022-09-24T01:02:20;5.85;;;4.10;;
41739;SDS011;27422;52.444;13.300;2022-09-24T01:04:45;6.78;;;3.97;;
41739;SDS011;27422;52.444;13.300;2022-09-24T01:07:12;5.57;;;3.67;;
41739;SDS011;27422;52.444;13.300;2022-09-24T01:09:38;7.13;;;4.10;;
41739;SDS011;27422;52.444;13.300;2022-09-24T01:12:13;6.07;;;4.28;;
41739;SDS011;27422;52.444;13.300;2022-09-24T01:20:32;6.53;;;4.50;;
41739;SDS011;27422;52.444;13.300;2022-09-24T01:34:08;6.47;;;4.18;;
41739;SDS011;27422;52.444;13.300;2022-09-24T01:36:39;8.55;;;4.57;;
41739;SDS011;27422;52.444;13.300;2022-09-24T01:39:06;7.20;;;4.60;;
41739;SDS011;27422;52.444;13.300;2022-09-24T01:41:32;5.80;;;3.97;;
41739;SDS011;27422;52.444;13.300;2022-09-24T01:43:59;7.50;;;4.50;;
41739;SDS011;27422;52.444;13.300;2022-09-24T01:46:25;6.75;;;4.38;;
41739;SDS011;27422;52.444;13.300;2022-09-24T01:48:51;7.03;;;4.47;;
41739;SDS011;27422;52.444;13.300;2022-09-24T01:51:21;7.50;;;4.65;;
41739;SDS011;27422;52.444;13.300;2022-09-24T01:53:51;6.50;;;4.35;;
41739;SDS011;27422;52.444;13.300;2022-09-24T01:56:24;8.15;;;4.95;;
41739;SDS011;27422;52.444;13.300;2022-09-24T01:58:53;6.05;;;4.60;;
41739;SDS011;27422;52.444;13.300;2022-09-24T02:01:22;7.68;;;4.53;;
41739;SDS011;27422;52.444;13.300;2022-09-24T02:03:57;7.35;;;4.70;;
41739;SDS011;27422;52.444;13.300;2022-09-24T02:06:31;7.28;;;4.00;;
41739;SDS011;27422;52.444;13.300;2022-09-24T02:09:00;8.63;;;4.90;;
41739;SDS011;27422;52.444;13.300;2022-09-24T02:11:28;7.50;;;4.75;;
41739;SDS011;27422;52.444;13.300;2022-09-24T02:16:38;6.60;;;4.18;;
41739;SDS011;27422;52.444;13.300;2022-09-24T02:19:07;6.72;;;4.85;;
41739;SDS011;27422;52.444;13.300;2022-09-24T02:21:39;6.78;;;4.43;;
41739;SDS011;27422;52.444;13.300;2022-09-24T02:24:13;6.22;;;4.30;;
41739;SDS011;27422;52.444;13.300;2022-09-24T02:26:42;7.35;;;4.47;;
41739;SDS011;27422;52.444;13.300;2022-09-24T02:29:07;6.85;;;4.88;;
41739;SDS011;27422;52.444;13.300;2022-09-24T02:31:34;8.70;;;4.55;;
41739;SDS011;27422;52.444;13.300;2022-09-24T02:34:03;6.65;;;4.63;;
41739;SDS011;27422;52.444;13.300;2022-09-24T02:36:51;6.93;;;4.95;;
41739;SDS011;27422;52.444;13.300;2022-09-24T02:39:19;7.40;;;4.82;;
41739;SDS011;27422;52.444;13.300;2022-09-24T02:41:45;8.45;;;4.68;;
41739;SDS011;27422;52.444;13.300;2022-09-24T02:44:12;7.07;;;4.70;;
41739;SDS011;27422;52.444;13.300;2022-09-24T02:46:38;5.87;;;4.60;;
41739;SDS011;27422;52.444;13.300;2022-09-24T02:49:05;7.27;;;4.93;;
41739;SDS011;27422;52.444;13.300;2022-09-24T02:51:31;8.32;;;5.10;;
41739;SDS011;27422;52.444;13.300;2022-09-24T02:53:56;7.25;;;4.80;;
41739;SDS011;27422;52.444;13.300;2022-09-24T02:56:21;7.00;;;4.40;;
41739;SDS011;27422;52.444;13.300;2022-09-24T02:58:47;7.15;;;4.80;;
41739;SDS011;27422;52.444;13.300;2022-09-24T03:01:12;6.85;;;4.70;;
41739;SDS011;27422;52.444;13.300;2022-09-24T03:03:38;8.60;;;4.75;;
41739;SDS011;27422;52.444;13.300;2022-09-24T03:06:03;6.82;;;4.63;;
41739;SDS011;27422;52.444;13.300;2022-09-24T03:08:29;7.00;;;4.60;;
41739;SDS011;27422;52.444;13.300;2022-09-24T03:10:55;6.70;;;4.30;;
41739;SDS011;27422;52.444;13.300;2022-09-24T03:13:20;6.55;;;4.75;;
41739;SDS011;27422;52.444;13.300;2022-09-24T03:15:46;7.15;;;4.57;;
41739;SDS011;27422;52.444;13.300;2022-09-24T03:18:12;6.55;;;4.72;;
41739;SDS011;27422;52.444;13.300;2022-09-24T03:20:37;8.68;;;4.95;;
41739;SDS011;27422;52.444;13.300;2022-09-24T03:23:03;7.20;;;4.80;;
41739;SDS011;27422;52.444;13.300;2022-09-24T03:25:29;6.93;;;5.05;;
41739;SDS011;27422;52.444;13.300;2022-09-24T03:27:54;7.35;;;4.68;;
41739;SDS011;27422;52.444;13.300;2022-09-24T03:30:19;9.32;;;4.97;;
41739;SDS011;27422;52.444;13.300;2022-09-24T03:33:03;7.03;;;4.68;;
41739;SDS011;27422;52.444;13.300;2022-09-24T03:35:28;8.55;;;5.20;;
41739;SDS011;27422;52.444;13.300;2022-09-24T03:37:54;7.30;;;5.10;;
41739;SDS011;27422;52.444;13.300;2022-09-24T03:40:19;6.72;;;4.90;;
41739;SDS011;27422;52.444;13.300;2022-09-24T03:42:45;8.25;;;5.13;;
41739;SDS011;27422;52.444;13.300;2022-09-24T03:45:10;6.78;;;5.05;;
41739;SDS011;27422;52.444;13.300;2022-09-24T03:47:35;7.78;;;5.18;;
41739;SDS011;27422;52.444;13.300;2022-09-24T03:50:01;6.78;;;4.90;;
41739;SDS011;27422;52.444;13.300;2022-09-24T03:52:26;6.13;;;4.80;;
41739;SDS011;27422;52.444;13.300;2022-09-24T03:54:52;9.85;;;4.90;;
41739;SDS011;27422;52.444;13.300;2022-09-24T03:57:17;7.57;;;5.25;;
41739;SDS011;27422;52.444;13.300;2022-09-24T03:59:43;6.90;;;5.22;;
41739;SDS011;27422;52.444;13.300;2022-09-24T04:02:09;7.05;;;4.90;;
41739;SDS011;27422;52.444;13.300;2022-09-24T04:04:35;7.28;;;5.07;;
41739;SDS011;27422;52.444;13.300;2022-09-24T04:07:00;7.63;;;5.57;;
41739;SDS011;27422;52.444;13.300;2022-09-24T04:09:25;8.52;;;5.40;;
41739;SDS011;27422;52.444;13.300;2022-09-24T04:11:51;7.28;;;5.13;;
41739;SDS011;27422;52.444;13.300;2022-09-24T04:14:19;8.57;;;5.00;;
41739;SDS011;27422;52.444;13.300;2022-09-24T04:16:44;10.02;;;5.85;;
41739;SDS011;27422;52.444;13.300;2022-09-24T04:19:11;8.40;;;5.82;;
41739;SDS011;27422;52.444;13.300;2022-09-24T04:21:43;6.65;;;5.13;;
41739;SDS011;27422;52.444;13.300;2022-09-24T04:24:09;10.32;;;5.15;;
41739;SDS011;27422;52.444;13.300;2022-09-24T04:26:34;7.57;;;5.35;;
41739;SDS011;27422;52.444;13.300;2022-09-24T04:29:00;7.75;;;5.35;;
41739;SDS011;27422;52.444;13.300;2022-09-24T04:31:28;7.55;;;5.25;;
41739;SDS011;27422;52.444;13.300;2022-09-24T04:33:53;7.32;;;5.25;;
41739;SDS011;27422;52.444;13.300;2022-09-24T04:36:19;7.90;;;5.53;;
41739;SDS011;27422;52.444;13.300;2022-09-24T04:38:44;8.45;;;5.10;;
41739;SDS011;27422;52.444;13.300;2022-09-24T04:41:10;6.82;;;5.07;;
41739;SDS011;27422;52.444;13.300;2022-09-24T04:43:36;8.07;;;5.55;;
41739;SDS011;27422;52.444;13.300;2022-09-24T04:46:02;7.82;;;5.78;;
41739;SDS011;27422;52.444;13.300;2022-09-24T04:48:28;7.30;;;5.75;;
41739;SDS011;27422;52.444;13.300;2022-09-24T04:50:54;7.47;;;5.03;;
41739;SDS011;27422;52.444;13.300;2022-09-24T04:53:20;7.32;;;5.32;;
41739;SDS011;27422;52.444;13.300;2022-09-24T04:55:46;8.77;;;5.88;;
41739;SDS011;27422;52.444;13.300;2022-09-24T04:58:11;7.88;;;5.00;;
41739;SDS011;27422;52.444;13.300;2022-09-24T05:00:37;7.72;;;5.22;;
41739;SDS011;27422;52.444;13.300;2022-09-24T05:03:02;8.13;;;5.70;;
41739;SDS011;27422;52.444;13.300;2022-09-24T05:05:28;8.10;;;5.47;;
41739;SDS011;27422;52.444;13.300;2022-09-24T05:07:53;6.65;;;4.97;;
41739;SDS011;27422;52.444;13.300;2022-09-24T05:10:21;7.45;;;5.05;;
41739;SDS011;27422;52.444;13.300;2022-09-24T05:12:46;8.65;;;5.10;;
41739;SDS011;27422;52.444;13.300;2022-09-24T05:15:12;8.50;;;5.50;;
41739;SDS011;27422;52.444;13.300;2022-09-24T05:17:38;7.60;;;5.45;;
41739;SDS011;27422;52.444;13.300;2022-09-24T05:20:04;7.85;;;5.50;;
41739;SDS011;27422;52.444;13.300;2022-09-24T05:22:30;7.70;;;5.47;;
41739;SDS011;27422;52.444;13.300;2022-09-24T05:25:00;8.32;;;5.05;;
41739;SDS011;27422;52.444;13.300;2022-09-24T05:27:25;7.28;;;5.18;;
41739;SDS011;27422;52.444;13.300;2022-09-24T05:29:53;7.47;;;4.70;;
41739;SDS011;27422;52.444;13.300;2022-09-24T05:32:19;8.77;;;5.72;;
41739;SDS011;27422;52.444;13.300;2022-09-24T05:34:44;9.15;;;6.10;;
41739;SDS011;27422;52.444;13.300;2022-09-24T05:37:10;9.18;;;5.28;;
41739;SDS011;27422;52.444;13.300;2022-09-24T05:39:36;8.75;;;5.43;;
41739;SDS011;27422;52.444;13.300;2022-09-24T05:42:02;8.95;;;5.60;;
41739;SDS011;27422;52.444;13.300;2022-09-24T05:44:28;9.90;;;5.75;;
41739;SDS011;27422;52.444;13.300;2022-09-24T05:46:55;6.67;;;4.93;;
41739;SDS011;27422;52.444;13.300;2022-09-24T05:49:21;9.23;;;6.03;;
41739;SDS011;27422;52.444;13.300;2022-09-24T05:51:48;6.93;;;5.05;;
41739;SDS011;27422;52.444;13.300;2022-09-24T05:54:14;7.65;;;5.07;;
41739;SDS011;27422;52.444;13.300;2022-09-24T05:56:40;8.25;;;5.50;;
41739;SDS011;27422;52.444;13.300;2022-09-24T05:59:05;8.65;;;5.32;;
41739;SDS011;27422;52.444;13.300;2022-09-24T06:01:31;8.20;;;4.88;;
41739;SDS011;27422;52.444;13.300;2022-09-24T06:03:57;6.07;;;4.40;;
41739;SDS011;27422;52.444;13.300;2022-09-24T06:06:23;6.88;;;5.25;;
41739;SDS011;27422;52.444;13.300;2022-09-24T06:08:49;9.13;;;5.10;;
41739;SDS011;27422;52.444;13.300;2022-09-24T06:11:14;7.95;;;5.60;;
41739;SDS011;27422;52.444;13.300;2022-09-24T06:13:42;8.25;;;5.32;;
41739;SDS011;27422;52.444;13.300;2022-09-24T06:16:08;7.00;;;4.93;;
41739;SDS011;27422;52.444;13.300;2022-09-24T06:18:36;7.72;;;5.47;;
41739;SDS011;27422;52.444;13.300;2022-09-24T06:21:04;6.82;;;4.97;;
41739;SDS011;27422;52.444;13.300;2022-09-24T06:23:34;7.43;;;5.10;;
41739;SDS011;27422;52.444;13.300;2022-09-24T06:26:00;9.90;;;5.57;;
41739;SDS011;27422;52.444;13.300;2022-09-24T06:28:26;7.07;;;5.00;;
41739;SDS011;27422;52.444;13.300;2022-09-24T06:30:51;7.35;;;5.35;;
41739;SDS011;27422;52.444;13.300;2022-09-24T06:33:37;6.88;;;4.90;;
41739;SDS011;27422;52.444;13.300;2022-09-24T06:36:04;8.13;;;5.40;;
41739;SDS011;27422;52.444;13.300;2022-09-24T06:38:32;8.30;;;5.60;;
41739;SDS011;27422;52.444;13.300;2022-09-24T06:40:59;7.05;;;5.10;;
41739;SDS011;27422;52.444;13.300;2022-09-24T06:43:26;6.82;;;5.03;;
41739;SDS011;27422;52.444;13.300;2022-09-24T06:45:53;6.53;;;4.90;;
41739;SDS011;27422;52.444;13.300;2022-09-24T06:48:19;7.07;;;4.93;;
41739;SDS011;27422;52.444;13.300;2022-09-24T06:50:46;8.47;;;5.40;;
41739;SDS011;27422;52.444;13.300;2022-09-24T06:53:12;7.38;;;5.07;;
41739;SDS011;27422;52.444;13.300;2022-09-24T06:55:37;8.05;;;5.03;;
41739;SDS011;27422;52.444;13.300;2022-09-24T06:58:05;8.35;;;5.30;;
41739;SDS011;27422;52.444;13.300;2022-09-24T07:00:36;8.00;;;5.18;;
41739;SDS011;27422;52.444;13.300;2022-09-24T07:03:03;7.20;;;4.90;;
41739;SDS011;27422;52.444;13.300;2022-09-24T07:05:29;7.65;;;5.18;;
41739;SDS011;27422;52.444;13.300;2022-09-24T07:07:54;7.50;;;5.10;;
41739;SDS011;27422;52.444;13.300;2022-09-24T07:10:19;7.38;;;4.97;;
41739;SDS011;27422;52.444;13.300;2022-09-24T07:12:46;6.93;;;5.05;;
41739;SDS011;27422;52.444;13.300;2022-09-24T07:15:11;7.80;;;5.00;;
41739;SDS011;27422;52.444;13.300;2022-09-24T07:17:37;8.20;;;5.22;;
41739;SDS011;27422;52.444;13.300;2022-09-24T07:20:03;7.65;;;5.30;;
41739;SDS011;27422;52.444;13.300;2022-09-24T07:22:29;8.03;;;5.17;;
41739;SDS011;27422;52.444;13.300;2022-09-24T07:24:54;7.32;;;5.22;;
41739;SDS011;27422;52.444;13.300;2022-09-24T07:27:19;7.30;;;5.18;;
41739;SDS011;27422;52.444;13.300;2022-09-24T07:29:48;6.25;;;5.13;;
41739;SDS011;27422;52.444;13.300;2022-09-24T07:32:17;6.63;;;4.72;;
41739;SDS011;27422;52.444;13.300;2022-09-24T07:34:43;8.07;;;5.10;;
41739;SDS011;27422;52.444;13.300;2022-09-24T07:37:09;7.53;;;5.18;;
41739;SDS011;27422;52.444;13.300;2022-09-24T07:39:34;8.50;;;5.20;;
41739;SDS011;27422;52.444;13.300;2022-09-24T07:41:59;8.30;;;4.88;;
41739;SDS011;27422;52.444;13.300;2022-09-24T07:44:45;7.93;;;4.68;;
41739;SDS011;27422;52.444;13.300;2022-09-24T07:47:12;7.50;;;4.90;;
41739;SDS011;27422;52.444;13.300;2022-09-24T07:49:37;7.25;;;4.72;;
41739;SDS011;27422;52.444;13.300;2022-09-24T07:52:03;7.90;;;4.78;;
41739;SDS011;27422;52.444;13.300;2022-09-24T07:54:28;6.75;;;4.97;;
41739;SDS011;27422;52.444;13.300;2022-09-24T07:56:55;7.10;;;4.47;;
41739;SDS011;27422;52.444;13.300;2022-09-24T07:59:20;6.75;;;5.05;;
41739;SDS011;27422;52.444;13.300;2022-09-24T08:01:46;7.50;;;4.95;;
41739;SDS011;27422;52.444;13.300;2022-09-24T08:04:11;7.28;;;4.82;;
41739;SDS011;27422;52.444;13.300;2022-09-24T08:06:37;6.72;;;4.97;;
41739;SDS011;27422;52.444;13.300;2022-09-24T08:09:03;7.13;;;4.90;;
41739;SDS011;27422;52.444;13.300;2022-09-24T08:11:33;7.43;;;5.07;;
41739;SDS011;27422;52.444;13.300;2022-09-24T08:13:58;7.97;;;4.80;;
41739;SDS011;27422;52.444;13.300;2022-09-24T08:16:24;6.43;;;4.80;;
41739;SDS011;27422;52.444;13.300;2022-09-24T08:18:50;8.27;;;4.97;;
41739;SDS011;27422;52.444;13.300;2022-09-24T08:21:18;7.22;;;4.72;;
41739;SDS011;27422;52.444;13.300;2022-09-24T08:23:43;7.78;;;4.85;;
41739;SDS011;27422;52.444;13.300;2022-09-24T08:26:09;9.32;;;5.05;;
41739;SDS011;27422;52.444;13.300;2022-09-24T08:28:36;7.40;;;4.82;;
41739;SDS011;27422;52.444;13.300;2022-09-24T08:31:02;6.32;;;4.75;;
41739;SDS011;27422;52.444;13.300;2022-09-24T08:33:31;6.70;;;4.70;;
41739;SDS011;27422;52.444;13.300;2022-09-24T08:36:01;9.25;;;4.30;;
41739;SDS011;27422;52.444;13.300;2022-09-24T08:38:27;6.43;;;4.70;;
41739;SDS011;27422;52.444;13.300;2022-09-24T08:44:21;6.63;;;4.40;;
41739;SDS011;27422;52.444;13.300;2022-09-24T08:46:20;6.63;;;4.38;;
41739;SDS011;27422;52.444;13.300;2022-09-24T08:49:29;6.53;;;4.60;;
41739;SDS011;27422;52.444;13.300;2022-09-24T08:55:21;8.40;;;4.90;;
41739;SDS011;27422;52.444;13.300;2022-09-24T09:00:38;6.88;;;4.50;;
41739;SDS011;27422;52.444;13.300;2022-09-24T09:03:10;6.03;;;4.47;;
41739;SDS011;27422;52.444;13.300;2022-09-24T09:05:53;6.07;;;4.15;;
41739;SDS011;27422;52.444;13.300;2022-09-24T09:08:28;7.13;;;4.72;;
41739;SDS011;27422;52.444;13.300;2022-09-24T09:10:57;7.93;;;4.60;;
41739;SDS011;27422;52.444;13.300;2022-09-24T09:16:25;7.82;;;4.22;;
41739;SDS011;27422;52.444;13.300;2022-09-24T09:18:55;7.03;;;4.60;;
41739;SDS011;27422;52.444;13.300;2022-09-24T09:24:14;6.45;;;4.07;;
41739;SDS011;27422;52.444;13.300;2022-09-24T09:26:45;6.25;;;4.38;;
41739;SDS011;27422;52.444;13.300;2022-09-24T09:29:12;6.70;;;4.22;;
41739;SDS011;27422;52.444;13.300;2022-09-24T09:31:42;8.32;;;4.75;;
41739;SDS011;27422;52.444;13.300;2022-09-24T09:37:18;6.03;;;3.97;;
41739;SDS011;27422;52.444;13.300;2022-09-24T09:42:34;7.22;;;4.22;;
41739;SDS011;27422;52.444;13.300;2022-09-24T09:48:43;6.32;;;4.28;;
41739;SDS011;27422;52.444;13.300;2022-09-24T09:51:24;7.38;;;4.07;;
41739;SDS011;27422;52.444;13.300;2022-09-24T09:54:33;8.68;;;4.50;;
41739;SDS011;27422;52.444;13.300;2022-09-24T09:57:15;6.80;;;3.92;;
41739;SDS011;27422;52.444;13.300;2022-09-24T09:59:51;6.75;;;3.88;;
41739;SDS011;27422;52.444;13.300;2022-09-24T10:02:24;5.97;;;4.13;;
41739;SDS011;27422;52.444;13.300;2022-09-24T10:05:03;6.47;;;4.22;;
41739;SDS011;27422;52.444;13.300;2022-09-24T10:08:18;5.57;;;4.07;;
41739;SDS011;27422;52.444;13.300;2022-09-24T10:11:01;7.40;;;4.43;;
41739;SDS011;27422;52.444;13.300;2022-09-24T10:16:54;6.10;;;4.07;;
41739;SDS011;27422;52.444;13.300;2022-09-24T10:19:31;6.05;;;3.90;;
41739;SDS011;27422;52.444;13.300;2022-09-24T10:22:05;5.93;;;3.78;;
41739;SDS011;27422;52.444;13.300;2022-09-24T10:24:33;5.97;;;4.20;;
41739;SDS011;27422;52.444;13.300;2022-09-24T10:26:58;6.10;;;4.10;;
41739;SDS011;27422;52.444;13.300;2022-09-24T10:29:25;6.50;;;3.70;;
41739;SDS011;27422;52.444;13.300;2022-09-24T10:32:25;5.45;;;4.03;;
41739;SDS011;27422;52.444;13.300;2022-09-24T10:34:56;5.72;;;3.97;;
41739;SDS011;27422;52.444;13.300;2022-09-24T10:37:23;5.30;;;3.80;;
41739;SDS011;27422;52.444;13.300;2022-09-24T10:39:59;5.75;;;3.80;;
41739;SDS011;27422;52.444;13.300;2022-09-24T10:42:39;6.75;;;4.00;;
41739;SDS011;27422;52.444;13.300;2022-09-24T10:45:09;5.90;;;3.80;;
41739;SDS011;27422;52.444;13.300;2022-09-24T10:50:33;5.10;;;3.38;;
41739;SDS011;27422;52.444;13.300;2022-09-24T10:56:20;6.75;;;4.13;;
41739;SDS011;27422;52.444;13.300;2022-09-24T11:20:49;6.82;;;3.95;;
41739;SDS011;27422;52.444;13.300;2022-09-24T11:26:00;5.90;;;3.88;;
41739;SDS011;27422;52.444;13.300;2022-09-24T11:37:16;6.30;;;3.90;;
41739;SDS011;27422;52.444;13.300;2022-09-24T11:43:03;6.68;;;4.15;;
41739;SDS011;27422;52.444;13.300;2022-09-24T11:51:30;5.40;;;4.00;;
41739;SDS011;27422;52.444;13.300;2022-09-24T11:56:54;5.38;;;3.65;;
41739;SDS011;27422;52.444;13.300;2022-09-24T12:02:18;5.07;;;3.65;;
41739;SDS011;27422;52.444;13.300;2022-09-24T12:05:40;6.50;;;4.15;;
41739;SDS011;27422;52.444;13.300;2022-09-24T12:08:41;6.10;;;4.10;;
41739;SDS011;27422;52.444;13.300;2022-09-24T12:11:35;4.30;;;3.15;;
41739;SDS011;27422;52.444;13.300;2022-09-24T12:14:25;6.55;;;3.47;;
41739;SDS011;27422;52.444;13.300;2022-09-24T12:17:35;5.65;;;3.88;;
41739;SDS011;27422;52.444;13.300;2022-09-24T12:20:17;5.85;;;3.45;;
41739;SDS011;27422;52.444;13.300;2022-09-24T12:22:49;5.95;;;3.90;;
41739;SDS011;27422;52.444;13.300;2022-09-24T12:25:19;5.80;;;3.17;;
41739;SDS011;27422;52.444;13.300;2022-09-24T12:27:45;5.63;;;3.80;;
41739;SDS011;27422;52.444;13.300;2022-09-24T12:30:20;6.95;;;3.60;;
41739;SDS011;27422;52.444;13.300;2022-09-24T12:38:36;5.55;;;3.63;;
41739;SDS011;27422;52.444;13.300;2022-09-24T12:46:21;5.10;;;3.53;;
41739;SDS011;27422;52.444;13.300;2022-09-24T12:48:49;5.22;;;3.17;;
41739;SDS011;27422;52.444;13.300;2022-09-24T12:51:16;5.88;;;3.67;;
41739;SDS011;27422;52.444;13.300;2022-09-24T12:53:54;5.55;;;3.50;;
41739;SDS011;27422;52.444;13.300;2022-09-24T12:56:25;5.47;;;3.08;;
41739;SDS011;27422;52.444;13.300;2022-09-24T12:58:53;4.57;;;3.03;;
41739;SDS011;27422;52.444;13.300;2022-09-24T13:06:38;8.20;;;3.45;;
41739;SDS011;27422;52.444;13.300;2022-09-24T13:12:31;5.97;;;3.58;;
41739;SDS011;27422;52.444;13.300;2022-09-24T13:14:59;5.40;;;3.33;;
41739;SDS011;27422;52.444;13.300;2022-09-24T13:17:28;5.28;;;3.22;;
41739;SDS011;27422;52.444;13.300;2022-09-24T13:19:57;4.95;;;3.10;;
41739;SDS011;27422;52.444;13.300;2022-09-24T13:32:35;5.20;;;3.47;;
41739;SDS011;27422;52.444;13.300;2022-09-24T13:35:04;4.68;;;2.95;;
41739;SDS011;27422;52.444;13.300;2022-09-24T13:37:38;4.28;;;2.67;;
41739;SDS011;27422;52.444;13.300;2022-09-24T13:40:11;4.75;;;3.20;;
41739;SDS011;27422;52.444;13.300;2022-09-24T13:45:17;5.70;;;3.70;;
41739;SDS011;27422;52.444;13.300;2022-09-24T13:48:01;5.35;;;3.60;;
41739;SDS011;27422;52.444;13.300;2022-09-24T13:50:29;5.60;;;3.22;;
41739;SDS011;27422;52.444;13.300;2022-09-24T13:53:01;5.20;;;3.47;;
41739;SDS011;27422;52.444;13.300;2022-09-24T13:55:35;7.35;;;3.80;;
41739;SDS011;27422;52.444;13.300;2022-09-24T13:58:04;5.22;;;3.30;;
41739;SDS011;27422;52.444;13.300;2022-09-24T14:00:30;5.75;;;3.33;;
41739;SDS011;27422;52.444;13.300;2022-09-24T14:03:16;5.35;;;3.65;;
41739;SDS011;27422;52.444;13.300;2022-09-24T14:05:46;4.75;;;3.13;;
41739;SDS011;27422;52.444;13.300;2022-09-24T14:08:12;10.82;;;6.15;;
41739;SDS011;27422;52.444;13.300;2022-09-24T14:10:39;5.45;;;3.50;;
41739;SDS011;27422;52.444;13.300;2022-09-24T14:13:18;4.82;;;3.40;;
41739;SDS011;27422;52.444;13.300;2022-09-24T14:18:25;4.70;;;3.15;;
41739;SDS011;27422;52.444;13.300;2022-09-24T14:21:06;4.13;;;2.45;;
41739;SDS011;27422;52.444;13.300;2022-09-24T14:28:59;4.30;;;2.72;;
41739;SDS011;27422;52.444;13.300;2022-09-24T14:31:29;4.60;;;2.85;;
41739;SDS011;27422;52.444;13.300;2022-09-24T14:33:54;3.95;;;2.45;;
41739;SDS011;27422;52.444;13.300;2022-09-24T14:36:23;6.78;;;3.53;;
41739;SDS011;27422;52.444;13.300;2022-09-24T14:38:55;4.30;;;3.00;;
41739;SDS011;27422;52.444;13.300;2022-09-24T14:41:24;4.30;;;2.70;;
41739;SDS011;27422;52.444;13.300;2022-09-24T14:49:03;4.50;;;2.90;;
41739;SDS011;27422;52.444;13.300;2022-09-24T14:51:30;5.45;;;3.28;;
41739;SDS011;27422;52.444;13.300;2022-09-24T14:54:00;5.57;;;3.65;;
41739;SDS011;27422;52.444;13.300;2022-09-24T14:56:29;6.72;;;3.80;;
41739;SDS011;27422;52.444;13.300;2022-09-24T14:58:58;6.15;;;3.80;;
41739;SDS011;27422;52.444;13.300;2022-09-24T15:01:31;5.18;;;3.40;;
41739;SDS011;27422;52.444;13.300;2022-09-24T15:04:01;5.80;;;3.83;;
41739;SDS011;27422;52.444;13.300;2022-09-24T15:06:28;6.00;;;3.97;;
41739;SDS011;27422;52.444;13.300;2022-09-24T15:09:14;7.32;;;3.85;;
41739;SDS011;27422;52.444;13.300;2022-09-24T15:11:46;7.70;;;4.50;;
41739;SDS011;27422;52.444;13.300;2022-09-24T15:14:17;6.05;;;3.83;;
41739;SDS011;27422;52.444;13.300;2022-09-24T15:16:53;5.93;;;3.60;;
41739;SDS011;27422;52.444;13.300;2022-09-24T15:21:50;5.28;;;3.38;;
41739;SDS011;27422;52.444;13.300;2022-09-24T15:24:17;5.10;;;3.10;;
41739;SDS011;27422;52.444;13.300;2022-09-24T15:26:44;6.03;;;3.25;;
41739;SDS011;27422;52.444;13.300;2022-09-24T15:29:20;4.80;;;3.30;;
41739;SDS011;27422;52.444;13.300;2022-09-24T15:31:50;5.95;;;3.45;;
41739;SDS011;27422;52.444;13.300;2022-09-24T15:34:16;8.35;;;3.95;;
41739;SDS011;27422;52.444;13.300;2022-09-24T15:36:41;5.10;;;3.33;;
41739;SDS011;27422;52.444;13.300;2022-09-24T15:39:08;5.93;;;3.80;;
41739;SDS011;27422;52.444;13.300;2022-09-24T15:41:34;5.67;;;3.60;;
41739;SDS011;27422;52.444;13.300;2022-09-24T15:43:59;5.40;;;3.20;;
41739;SDS011;27422;52.444;13.300;2022-09-24T15:46:25;6.72;;;3.75;;
41739;SDS011;27422;52.444;13.300;2022-09-24T15:48:53;6.03;;;4.18;;
41739;SDS011;27422;52.444;13.300;2022-09-24T15:51:19;6.22;;;3.58;;
41739;SDS011;27422;52.444;13.300;2022-09-24T15:53:46;6.22;;;3.78;;
41739;SDS011;27422;52.444;13.300;2022-09-24T15:56:12;5.35;;;3.63;;
41739;SDS011;27422;52.444;13.300;2022-09-24T15:58:37;5.30;;;3.45;;
41739;SDS011;27422;52.444;13.300;2022-09-24T16:01:05;5.95;;;3.50;;
41739;SDS011;27422;52.444;13.300;2022-09-24T16:03:31;5.55;;;3.67;;
41739;SDS011;27422;52.444;13.300;2022-09-24T16:05:58;7.85;;;4.15;;
41739;SDS011;27422;52.444;13.300;2022-09-24T16:08:27;6.43;;;3.70;;
41739;SDS011;27422;52.444;13.300;2022-09-24T16:10:52;4.72;;;3.25;;
41739;SDS011;27422;52.444;13.300;2022-09-24T16:13:18;4.85;;;3.33;;
41739;SDS011;27422;52.444;13.300;2022-09-24T16:15:46;6.85;;;4.03;;
41739;SDS011;27422;52.444;13.300;2022-09-24T16:18:12;6.85;;;3.80;;
41739;SDS011;27422;52.444;13.300;2022-09-24T16:20:46;6.15;;;3.95;;
41739;SDS011;27422;52.444;13.300;2022-09-24T16:23:13;6.50;;;4.13;;
41739;SDS011;27422;52.444;13.300;2022-09-24T16:25:40;6.32;;;4.05;;
41739;SDS011;27422;52.444;13.300;2022-09-24T16:28:07;5.35;;;3.67;;
41739;SDS011;27422;52.444;13.300;2022-09-24T16:30:35;6.82;;;4.07;;
41739;SDS011;27422;52.444;13.300;2022-09-24T16:33:02;6.30;;;4.60;;
41739;SDS011;27422;52.444;13.300;2022-09-24T16:35:27;7.05;;;4.53;;
41739;SDS011;27422;52.444;13.300;2022-09-24T16:37:53;7.22;;;4.65;;
41739;SDS011;27422;52.444;13.300;2022-09-24T16:40:18;7.50;;;4.82;;
41739;SDS011;27422;52.444;13.300;2022-09-24T16:42:43;6.68;;;4.28;;
41739;SDS011;27422;52.444;13.300;2022-09-24T16:45:09;6.20;;;4.20;;
41739;SDS011;27422;52.444;13.300;2022-09-24T16:47:36;6.43;;;4.10;;
41739;SDS011;27422;52.444;13.300;2022-09-24T16:50:01;7.00;;;4.30;;
41739;SDS011;27422;52.444;13.300;2022-09-24T16:52:28;6.93;;;4.13;;
41739;SDS011;27422;52.444;13.300;2022-09-24T16:54:55;6.18;;;3.88;;
41739;SDS011;27422;52.444;13.300;2022-09-24T16:57:21;5.55;;;3.67;;
41739;SDS011;27422;52.444;13.300;2022-09-24T16:59:49;6.47;;;4.20;;
41739;SDS011;27422;52.444;13.300;2022-09-24T17:02:15;6.57;;;4.47;;
41739;SDS011;27422;52.444;13.300;2022-09-24T17:04:40;6.65;;;3.60;;
41739;SDS011;27422;52.444;13.300;2022-09-24T17:07:11;6.15;;;3.95;;
41739;SDS011;27422;52.444;13.300;2022-09-24T17:09:46;7.00;;;3.88;;
41739;SDS011;27422;52.444;13.300;2022-09-24T17:12:30;6.88;;;3.75;;
41739;SDS011;27422;52.444;13.300;2022-09-24T17:14:55;6.35;;;4.10;;
41739;SDS011;27422;52.444;13.300;2022-09-24T17:17:21;5.95;;;3.90;;
41739;SDS011;27422;52.444;13.300;2022-09-24T17:19:47;8.30;;;4.20;;
41739;SDS011;27422;52.444;13.300;2022-09-24T17:22:12;7.90;;;4.35;;